Terminal Aerodrome Forecast
Issued by NWS

Home | Current Version | Previous Version | Text Only | Print | Product List | Glossary On
Versions: 1 2 3 4 5 6 7 8 9 10 11 12 13 14 15 16
000
FTUS45 KABQ 041145
TAFSAF
TAF
KSAF 041145Z 0412/0512 11006KT P6SM SCT080
     FM041800 24007KT P6SM VCSH SCT070
      TEMPO 0423/0503 5SM -TSRA OVC030CB
     FM050300 30007KT P6SM VCSH OVC050=

USA.gov is the U.S. government's official web portal to all federal, state and local government web resources and services.